Time;durP1;ratioP1;P1;durP2;ratioP2;P2;SDS_P1;SDS_P2;PMS_P1;PMS_P2;Temp;Humidity;BMP_temperature;BMP_pressure;BME280_temperature;BME280_humidity;BME280_pressure;Samples;Min_cycle;Max_cycle;Signal;HPM_P1;HPM_P2
2022/08/17 00:01:22;;;;;;;17.60;11.85;;;;;;;26.58;54.64;100013.16;5054287;28;20032;-78
2022/08/17 00:03:49;;;;;;;14.57;12.38;;;;;;;26.57;54.71;100008.75;5055377;28;20078;-78
2022/08/17 00:06:28;;;;;;;16.45;11.90;;;;;;;26.57;54.77;100011.50;5053995;28;20025;-79
2022/08/17 00:08:58;;;;;;;23.42;13.60;;;;;;;26.51;54.88;99993.16;5052431;28;20071;-78
2022/08/17 00:11:28;;;;;;;28.38;12.75;;;;;;;26.60;54.77;100007.41;5055077;28;20033;-78
2022/08/17 00:13:59;;;;;;;19.75;14.43;;;;;;;26.61;54.69;100004.38;5055174;28;20025;-78
2022/08/17 00:16:35;;;;;;;30.40;17.42;;;;;;;26.58;54.52;99993.00;5055322;28;20021;-78
2022/08/17 00:19:04;;;;;;;33.45;22.08;;;;;;;26.60;54.66;99997.22;5055194;28;20021;-78
2022/08/17 00:21:31;;;;;;;37.05;26.73;;;;;;;26.60;54.67;99983.44;5054012;28;20025;-78
2022/08/17 00:23:58;;;;;;;35.58;24.63;;;;;;;26.62;54.55;99984.00;5053971;28;20383;-78
2022/08/17 00:26:25;;;;;;;33.20;24.08;;;;;;;26.62;54.73;99984.00;5053795;28;20028;-78
2022/08/17 00:28:51;;;;;;;30.52;21.67;;;;;;;26.66;54.52;99987.97;5054844;28;20032;-78
2022/08/17 00:31:17;;;;;;;24.67;18.85;;;;;;;26.64;54.73;99976.31;5055129;28;20013;-78
2022/08/17 00:33:44;;;;;;;25.35;17.25;;;;;;;26.65;54.19;99986.28;5054585;28;20420;-78
2022/08/17 00:36:10;;;;;;;34.42;15.45;;;;;;;26.59;54.36;99981.75;5053846;28;20039;-78
2022/08/17 00:38:36;;;;;;;24.75;14.23;;;;;;;26.52;54.78;99978.28;5053577;28;20025;-76
2022/08/17 00:41:09;;;;;;;24.38;13.70;;;;;;;26.61;54.18;99982.31;5053351;28;20032;-76
2022/08/17 00:43:39;;;;;;;21.98;13.68;;;;;;;26.56;54.50;99973.13;5053839;28;20043;-76
2022/08/17 00:46:10;;;;;;;24.67;16.13;;;;;;;26.44;54.51;99954.69;5053396;28;20040;-78
2022/08/17 00:48:37;;;;;;;27.42;15.88;;;;;;;26.55;54.41;99969.50;5054436;28;20048;-78
2022/08/17 00:51:10;;;;;;;25.65;17.40;;;;;;;26.47;54.52;99964.38;5052947;28;20480;-77
2022/08/17 00:53:41;;;;;;;44.65;26.15;;;;;;;26.46;55.20;99971.81;5054349;28;20025;-78
2022/08/17 00:56:13;;;;;;;67.57;42.40;;;;;;;26.47;55.41;99981.78;5054496;28;20104;-78
2022/08/17 00:58:39;;;;;;;84.38;59.00;;;;;;;26.34;56.41;99972.94;5052540;28;20115;-78
2022/08/17 01:01:07;;;;;;;118.47;69.75;;;;;;;26.32;56.85;99975.94;5054112;28;20033;-77
2022/08/17 01:03:35;;;;;;;108.68;70.43;;;;;;;26.31;57.25;99981.69;5054203;28;20430;-77
2022/08/17 01:06:04;;;;;;;112.25;71.82;;;;;;;26.27;57.62;99983.25;5052784;28;20075;-77
2022/08/17 01:08:31;;;;;;;112.88;72.13;;;;;;;26.21;57.94;99981.47;5052445;28;20138;-78
2022/08/17 01:11:02;;;;;;;111.95;72.68;;;;;;;26.22;58.24;99985.91;5054189;28;20024;-78
2022/08/17 01:13:40;;;;;;;107.70;71.13;;;;;;;26.18;58.28;99981.94;5052680;28;20031;-78
2022/08/17 01:16:16;;;;;;;109.55;74.07;;;;;;;26.14;58.48;99986.25;5049928;28;20032;-78
2022/08/17 01:18:44;;;;;;;112.30;73.93;;;;;;;26.14;58.63;99983.50;5052690;28;20029;-77
2022/08/17 01:21:19;;;;;;;119.47;75.07;;;;;;;26.11;58.53;99981.22;5052199;28;20059;-78
2022/08/17 01:23:45;;;;;;;119.63;79.07;;;;;;;26.12;58.48;99978.19;5053834;28;20029;-78
2022/08/17 01:26:10;;;;;;;122.15;76.78;;;;;;;26.11;58.17;99982.06;5053223;28;20025;-78
2022/08/17 01:28:38;;;;;;;127.13;73.32;;;;;;;26.08;58.36;99978.94;5053154;28;20120;-77
2022/08/17 01:31:05;;;;;;;97.20;64.90;;;;;;;26.01;58.07;99980.97;5053667;28;20017;-78
2022/08/17 01:33:31;;;;;;;89.05;60.70;;;;;;;25.95;58.00;99969.84;5052398;28;20025;-78
2022/08/17 01:35:59;;;;;;;80.97;55.05;;;;;;;26.02;57.89;99963.38;5053279;28;20438;-77
2022/08/17 01:38:30;;;;;;;86.43;53.00;;;;;;;25.97;57.91;99964.94;5052398;28;20063;-78
2022/08/17 01:41:00;;;;;;;77.40;52.38;;;;;;;25.98;57.91;99966.63;5053468;28;20447;-78
2022/08/17 01:43:40;;;;;;;70.80;50.67;;;;;;;25.90;57.83;99957.88;5053273;28;20513;-78
2022/08/17 01:46:06;;;;;;;72.35;47.65;;;;;;;25.95;57.56;99961.59;5053422;28;20043;-78
2022/08/17 01:48:35;;;;;;;76.82;46.40;;;;;;;25.95;57.45;99966.25;5053091;28;20033;-78
2022/08/17 01:51:01;;;;;;;59.63;44.92;;;;;;;25.99;57.54;99965.50;5053485;28;20048;-78
2022/08/17 01:53:33;;;;;;;73.07;44.70;;;;;;;25.98;57.66;99960.25;5053174;28;20047;-78
2022/08/17 01:56:04;;;;;;;68.28;47.28;;;;;;;25.91;57.58;99954.88;5053044;28;20024;-78
2022/08/17 01:58:32;;;;;;;64.45;45.20;;;;;;;25.96;57.80;99962.44;5051848;28;20017;-78
2022/08/17 02:00:57;;;;;;;66.55;47.33;;;;;;;25.87;58.33;99958.34;5051575;28;20052;-78
2022/08/17 02:03:24;;;;;;;66.95;46.20;;;;;;;25.89;58.06;99957.03;5053021;28;20454;-78
2022/08/17 02:05:52;;;;;;;84.40;45.20;;;;;;;25.90;58.25;99964.19;5051753;28;20444;-77
2022/08/17 02:08:19;;;;;;;70.40;46.25;;;;;;;25.89;58.30;99951.53;5035305;28;20086;-78
2022/08/17 02:10:47;;;;;;;68.93;41.33;;;;;;;25.88;58.49;99955.34;5052923;28;20071;-78
2022/08/17 02:13:13;;;;;;;73.57;45.30;;;;;;;25.74;58.61;99948.41;5051657;28;20056;-78
2022/08/17 02:15:39;;;;;;;82.70;46.05;;;;;;;25.81;58.66;99965.66;5051630;28;20052;-78
2022/08/17 02:18:06;;;;;;;66.75;44.60;;;;;;;25.76;58.36;99962.78;5052662;28;20073;-78
2022/08/17 02:20:32;;;;;;;77.72;43.70;;;;;;;25.74;58.40;99956.69;5050990;28;20025;-78
2022/08/17 02:23:01;;;;;;;64.05;43.78;;;;;;;25.70;58.63;99954.63;5052714;28;20029;-78
2022/08/17 02:25:30;;;;;;;58.72;44.65;;;;;;;25.73;58.33;99968.78;5051304;28;20048;-78
2022/08/17 02:27:56;;;;;;;67.15;41.83;;;;;;;25.77;58.42;99969.97;5051388;28;20029;-78
2022/08/17 02:30:21;;;;;;;70.57;42.17;;;;;;;25.71;58.36;99967.34;5052385;28;20085;-78
2022/08/17 02:32:47;;;;;;;62.85;39.42;;;;;;;25.75;58.65;99977.63;5052421;28;20049;-81
2022/08/17 02:35:13;;;;;;;56.90;37.53;;;;;;;25.69;58.51;99977.72;5034940;28;20462;-82
2022/08/17 02:37:41;;;;;;;60.17;36.20;;;;;;;25.67;58.24;99969.72;5052524;28;20398;-79
2022/08/17 02:40:07;;;;;;;54.30;35.70;;;;;;;25.60;58.50;99971.75;5052235;28;20013;-80
2022/08/17 02:42:37;;;;;;;54.90;35.97;;;;;;;25.64;58.31;99964.69;5051451;28;20534;-79
2022/08/17 02:45:06;;;;;;;50.08;31.10;;;;;;;25.51;58.44;99969.59;5052135;28;20109;-79
2022/08/17 02:47:32;;;;;;;52.80;29.38;;;;;;;25.45;58.31;99972.19;5050298;28;20021;-77
2022/08/17 02:49:58;;;;;;;45.00;27.73;;;;;;;25.51;58.02;99975.94;5051790;28;20021;-77
2022/08/17 02:52:25;;;;;;;48.85;26.80;;;;;;;25.57;57.70;99971.38;5050731;28;20095;-75
2022/08/17 02:54:51;;;;;;;41.65;27.08;;;;;;;25.48;57.56;99965.34;5050713;28;20044;-76
2022/08/17 02:57:25;;;;;;;39.60;25.88;;;;;;;25.55;57.67;99971.63;5051566;28;20051;-77
2022/08/17 02:59:50;;;;;;;53.15;30.45;;;;;;;25.57;57.84;99972.22;5047755;28;20025;-76
2022/08/17 03:02:16;;;;;;;54.15;31.80;;;;;;;25.55;57.91;99976.31;5050169;28;20497;-76
2022/08/17 03:04:43;;;;;;;45.28;30.48;;;;;;;25.52;57.99;99977.63;5050494;28;20406;-76
2022/08/17 03:07:08;;;;;;;49.10;29.50;;;;;;;25.45;58.22;99968.59;5050210;28;20033;-77
2022/08/17 03:09:34;;;;;;;62.25;35.45;;;;;;;25.47;58.42;99980.22;5050363;28;20028;-76
2022/08/17 03:12:08;;;;;;;72.70;52.17;;;;;;;25.48;58.40;99981.88;5050800;28;20107;-76
2022/08/17 03:14:37;;;;;;;63.70;41.72;;;;;;;25.41;58.26;99981.97;5050933;28;20021;-76
2022/08/17 03:17:02;;;;;;;60.00;37.72;;;;;;;25.40;58.56;99979.47;5050701;28;20021;-76
2022/08/17 03:19:28;;;;;;;49.00;32.67;;;;;;;25.35;58.60;99982.13;5051052;28;20154;-82
2022/08/17 03:21:53;;;;;;;56.70;29.15;;;;;;;25.39;58.39;99973.13;5050071;28;20033;-76
2022/08/17 03:24:18;;;;;;;45.65;28.75;;;;;;;25.39;58.25;99967.63;5050280;28;20033;-79
2022/08/17 03:26:44;;;;;;;48.25;25.45;;;;;;;25.34;58.30;99975.78;5051052;28;20025;-78
2022/08/17 03:29:17;;;;;;;56.20;26.38;;;;;;;25.33;58.28;99979.59;5049674;28;20489;-80
2022/08/17 03:31:44;;;;;;;;;;;;;;;25.35;58.28;99987.63;5049543;28;20338;-76
2022/08/17 03:34:09;;;;;;;36.58;24.75;;;;;;;25.34;57.59;99983.19;5049662;28;19913;-80
2022/08/17 03:36:35;;;;;;;45.88;24.77;;;;;;;25.30;57.42;99992.97;5049147;28;20033;-76
2022/08/17 03:39:00;;;;;;;48.75;27.35;;;;;;;25.31;57.52;99990.00;5048792;28;20406;-76
2022/08/17 03:41:26;;;;;;;36.85;24.17;;;;;;;25.31;57.57;99989.16;5050580;28;20485;-77
2022/08/17 03:43:53;;;;;;;42.67;27.65;;;;;;;25.31;57.61;99986.41;5050258;28;20037;-76
2022/08/17 03:57:17;;;;;;;46.35;28.10;;;;;;;25.44;58.29;100009.03;5049957;28;20035;-77
2022/08/17 03:59:43;;;;;;;60.55;25.35;;;;;;;25.50;57.75;100010.06;5049948;28;20082;-82
2022/08/17 04:02:16;;;;;;;47.70;25.67;;;;;;;25.44;57.95;100020.06;5051492;28;20033;-83
2022/08/17 04:04:42;;;;;;;33.97;24.80;;;;;;;25.45;57.51;100019.00;5050213;28;20055;-76
2022/08/17 04:07:08;;;;;;;30.02;22.35;;;;;;;25.46;57.50;100019.84;5049881;28;20162;-81
2022/08/17 04:09:35;;;;;;;66.07;24.35;;;;;;;25.55;57.24;100029.47;5034237;28;20036;-81
2022/08/17 04:12:02;;;;;;;59.80;24.20;;;;;;;25.59;57.37;100021.56;5051449;28;20021;-82
2022/08/17 04:14:34;;;;;;;34.70;22.13;;;;;;;25.64;57.15;100019.78;5052657;28;20025;-82
2022/08/17 04:17:00;;;;;;;41.47;19.73;;;;;;;25.66;56.66;100009.34;5051421;28;20423;-82
2022/08/17 04:19:27;;;;;;;46.10;19.33;;;;;;;25.76;56.46;100020.63;5049710;28;20029;-81
2022/08/17 04:21:52;;;;;;;81.57;24.77;;;;;;;25.73;56.12;100007.34;5050407;28;20036;-82
2022/08/17 04:24:18;;;;;;;42.05;19.40;;;;;;;25.89;55.67;100034.19;5052954;28;20028;-83
2022/08/17 04:26:44;;;;;;;51.17;18.77;;;;;;;25.97;55.19;100030.22;5050197;28;20047;-79
2022/08/17 04:29:09;;;;;;;30.00;16.38;;;;;;;25.98;54.94;100030.00;5032500;28;20043;-79
2022/08/17 04:31:35;;;;;;;29.27;15.27;;;;;;;26.02;54.84;100033.13;5049217;28;20032;-77
2022/08/17 04:34:00;;;;;;;49.28;18.88;;;;;;;26.02;54.52;100035.03;5052889;28;20035;-82
2022/08/17 04:36:27;;;;;;;38.53;17.23;;;;;;;26.13;54.52;100040.53;5056963;28;20025;-82
2022/08/17 04:38:53;;;;;;;26.02;14.82;;;;;;;26.18;54.09;100039.84;5056444;28;20079;-83
2022/08/17 04:44:03;;;;;;;47.42;16.17;;;;;;;26.20;53.67;100019.25;5055793;28;20060;-83
2022/08/17 04:46:32;;;;;;;94.00;20.52;;;;;;;26.31;53.51;100032.16;5055868;28;20044;-82
2022/08/17 04:48:59;;;;;;;32.40;16.13;;;;;;;26.37;53.60;100030.34;5053847;28;20044;-82
2022/08/17 04:51:29;;;;;;;25.80;14.82;;;;;;;26.35;53.52;100033.38;5054681;28;20112;-82
2022/08/17 04:53:58;;;;;;;36.42;15.63;;;;;;;26.41;53.26;100037.06;5054887;28;20059;-82
2022/08/17 04:56:26;;;;;;;43.67;16.42;;;;;;;26.43;53.39;100034.91;5055832;28;20059;-82
2022/08/17 04:58:54;;;;;;;67.75;20.75;;;;;;;26.38;53.04;100021.84;5054554;28;20107;-81
2022/08/17 05:01:22;;;;;;;57.88;17.80;;;;;;;26.50;52.88;100041.13;5055457;28;20021;-83
2022/08/17 05:03:47;;;;;;;36.25;15.88;;;;;;;26.52;52.88;100038.97;5055000;28;20079;-83
2022/08/17 05:06:15;;;;;;;54.65;17.67;;;;;;;26.57;52.88;100046.53;5055224;28;20146;-82
2022/08/17 05:08:42;;;;;;;42.95;15.60;;;;;;;26.64;52.86;100045.28;5055775;28;20462;-82
2022/08/17 05:11:10;;;;;;;36.20;15.70;;;;;;;26.75;52.71;100049.97;5055209;28;20446;-82
2022/08/17 05:13:36;;;;;;;32.40;15.60;;;;;;;26.73;52.33;100032.78;5055102;28;20020;-83
2022/08/17 05:16:03;;;;;;;24.33;15.15;;;;;;;26.76;52.32;100039.72;5055909;28;20054;-82
2022/08/17 05:18:29;;;;;;;33.00;16.75;;;;;;;26.86;52.48;100056.53;5054640;28;20025;-83
2022/08/17 05:20:55;;;;;;;32.65;16.75;;;;;;;26.94;52.24;100058.94;5053886;28;20037;-82
2022/08/17 05:23:23;;;;;;;30.73;16.25;;;;;;;26.98;52.54;100055.41;5053854;28;20068;-82
2022/08/17 05:25:53;;;;;;;24.38;16.98;;;;;;;27.03;52.66;100058.28;5054419;28;20080;-82
2022/08/17 05:28:20;;;;;;;30.20;15.82;;;;;;;27.11;52.13;100059.81;5053496;28;20979;-81
2022/08/17 05:30:47;;;;;;;25.77;15.07;;;;;;;27.18;51.78;100066.03;5054272;28;20098;-82
2022/08/17 05:33:24;;;;;;;39.60;16.30;;;;;;;27.24;51.79;100065.06;5054843;28;20024;-82
2022/08/17 05:35:51;;;;;;;41.25;16.55;;;;;;;27.34;51.60;100061.63;5053210;28;20817;-82
2022/08/17 05:38:19;;;;;;;27.92;15.50;;;;;;;27.41;51.55;100059.56;5053005;28;20024;-82
2022/08/17 05:40:45;;;;;;;41.08;17.70;;;;;;;27.50;51.40;100069.13;5054624;28;20033;-82
2022/08/17 05:43:13;;;;;;;28.30;15.90;;;;;;;27.50;51.72;100058.94;5054611;28;20025;-82
2022/08/17 05:45:47;;;;;;;32.60;15.90;;;;;;;27.49;51.65;100051.72;5054190;28;20037;-81
2022/08/17 05:48:16;;;;;;;41.75;16.20;;;;;;;27.54;51.81;100051.84;5053115;28;20049;-82
2022/08/17 05:50:59;;;;;;;32.42;15.88;;;;;;;27.58;51.65;100066.00;5054295;28;20398;-81
2022/08/17 05:53:32;;;;;;;30.63;15.75;;;;;;;27.56;51.64;100068.16;5054579;28;20024;-81
2022/08/17 05:56:21;;;;;;;25.45;15.52;;;;;;;27.55;51.27;100060.97;5054875;28;20490;-81
2022/08/17 05:59:01;;;;;;;34.20;16.45;;;;;;;27.49;51.91;100059.19;5055630;28;20028;-82
2022/08/17 06:01:47;;;;;;;30.83;15.82;;;;;;;27.47;51.54;100062.19;5055286;28;20059;-81
2022/08/17 06:04:45;;;;;;;43.63;18.40;;;;;;;27.48;51.66;100068.56;5054638;28;20021;-81
2022/08/17 06:07:38;;;;;;;59.08;19.58;;;;;;;27.40;52.16;100071.72;5054246;28;20032;-82
2022/08/17 06:10:24;;;;;;;31.92;14.77;;;;;;;27.34;51.83;100064.38;5054306;28;20024;-82
2022/08/17 06:13:16;;;;;;;28.35;13.95;;;;;;;27.38;52.11;100060.03;5053982;28;20039;-83
2022/08/17 06:16:09;;;;;;;44.33;15.15;;;;;;;27.34;52.16;100069.91;5054392;28;20025;-83
2022/08/17 06:18:55;;;;;;;31.55;13.85;;;;;;;27.26;52.09;100056.50;5036869;28;20029;-81
2022/08/17 06:21:23;;;;;;;30.90;14.35;;;;;;;27.38;51.92;100073.84;5055564;28;20020;-82
2022/08/17 06:23:54;;;;;;;60.60;15.60;;;;;;;27.32;52.21;100050.00;5062936;28;20016;-81
2022/08/17 06:26:24;;;;;;;30.27;12.67;;;;;;;27.42;51.60;100062.09;5070085;28;20049;-82
2022/08/17 06:28:55;;;;;;;43.25;14.63;;;;;;;27.42;51.70;100061.22;5052856;28;20040;-81
2022/08/17 06:31:33;;;;;;;31.70;12.02;;;;;;;27.48;51.88;100065.81;5051640;28;20056;-81
2022/08/17 06:34:01;;;;;;;37.25;12.77;;;;;;;27.52;51.27;100061.47;5052822;28;20566;-84
2022/08/17 06:37:00;;;;;;;34.33;11.85;;;;;;;27.53;51.27;100061.19;5052507;28;20033;-82
2022/08/17 06:40:13;;;;;;;33.10;11.77;;;;;;;27.57;51.16;100056.00;5053532;28;20028;-82
2022/08/17 06:42:39;;;;;;;38.00;11.25;;;;;;;27.64;50.89;100067.75;5012206;28;20041;-83
2022/08/17 06:45:17;;;;;;;37.95;11.60;;;;;;;27.58;50.52;100052.19;5010180;28;20033;-84
2022/08/17 06:47:51;;;;;;;34.00;12.23;;;;;;;27.65;50.72;100057.50;5025233;28;20060;-83
2022/08/17 06:50:37;;;;;;;32.60;11.68;;;;;;;27.81;50.87;100059.47;5052680;28;20047;-82
2022/08/17 06:53:25;;;;;;;26.98;13.80;;;;;;;27.91;50.56;100054.09;5052283;28;20029;-83
2022/08/17 06:56:09;;;;;;;33.45;12.25;;;;;;;28.06;50.15;100057.97;5050658;28;20025;-82
2022/08/17 06:58:38;;;;;;;26.33;11.55;;;;;;;28.22;49.52;100060.97;5051767;28;20482;-84
2022/08/17 07:01:25;;;;;;;25.77;10.85;;;;;;;28.33;49.44;100058.09;5053042;28;20040;-83
2022/08/17 07:04:10;;;;;;;31.48;10.70;;;;;;;28.47;49.25;100064.13;5048441;28;20147;-82
2022/08/17 07:06:38;;;;;;;28.15;10.90;;;;;;;28.51;48.76;100054.19;5053432;28;20529;-82
2022/08/17 07:09:14;;;;;;;31.25;11.10;;;;;;;28.67;48.48;100053.34;5052911;28;20029;-82
2022/08/17 07:12:03;;;;;;;36.03;11.55;;;;;;;28.81;48.48;100059.31;5053002;28;20513;-80
2022/08/17 07:14:38;;;;;;;23.63;10.23;;;;;;;28.95;48.43;100055.94;5030206;28;20034;-76
2022/08/17 07:17:12;;;;;;;51.58;11.05;;;;;;;29.09;48.20;100054.44;5030420;28;20109;-76
2022/08/17 07:19:41;;;;;;;26.15;11.35;;;;;;;29.22;48.34;100055.94;5052087;28;20411;-78
2022/08/17 07:22:29;;;;;;;49.10;14.18;;;;;;;29.25;47.77;100055.47;5051617;28;20036;-79
2022/08/17 07:25:03;;;;;;;22.75;12.80;;;;;;;29.37;47.70;100058.91;5040734;28;20032;-82
2022/08/17 07:27:49;;;;;;;24.58;12.68;;;;;;;29.37;47.72;100036.75;5052762;28;20454;-82
2022/08/17 07:30:27;;;;;;;22.88;11.60;;;;;;;29.50;47.61;100052.13;5052555;28;20021;-82
2022/08/17 07:32:56;;;;;;;26.00;11.68;;;;;;;29.60;47.42;100060.53;5057097;28;20111;-76
2022/08/17 07:35:36;;;;;;;39.78;12.02;;;;;;;29.71;47.12;100056.75;5071489;28;20024;-77
2022/08/17 07:38:10;;;;;;;27.42;11.75;;;;;;;29.80;46.85;100063.47;5071442;28;20027;-75
2022/08/17 07:40:39;;;;;;;44.40;13.13;;;;;;;29.84;47.04;100059.13;5071370;28;20025;-75
2022/08/17 07:43:14;;;;;;;22.88;11.57;;;;;;;29.95;46.72;100057.25;5071342;28;20132;-74
2022/08/17 07:48:50;;;;;;;20.08;11.93;;;;;;;30.14;46.40;100056.59;5051304;28;20548;-76
2022/08/17 07:51:24;;;;;;;23.25;10.43;;;;;;;30.18;46.29;100049.38;5051046;28;20032;-74
2022/08/17 07:53:55;;;;;;;29.98;12.18;;;;;;;30.26;46.44;100052.75;5051078;28;20039;-74
2022/08/17 07:56:40;;;;;;;29.85;11.18;;;;;;;30.32;46.39;100057.25;5056747;28;20025;-76
2022/08/17 07:59:25;;;;;;;20.20;12.15;;;;;;;30.36;46.04;100050.91;5067372;28;20029;-75
2022/08/17 08:01:54;;;;;;;19.73;11.02;;;;;;;30.42;46.02;100047.09;5049762;28;20429;-79
2022/08/17 08:04:33;;;;;;;29.42;12.40;;;;;;;30.51;46.04;100047.41;5051009;28;20025;-76
2022/08/17 08:07:07;;;;;;;27.10;11.68;;;;;;;30.48;46.03;100046.00;5051084;28;20037;-78
2022/08/17 08:09:39;;;;;;;39.75;12.30;;;;;;;30.54;46.26;100046.88;5066726;28;20071;-77
2022/08/17 08:12:37;;;;;;;30.48;14.30;;;;;;;30.60;46.12;100045.78;5064767;28;20502;-77
2022/08/17 08:15:17;;;;;;;28.92;12.18;;;;;;;30.64;45.71;100046.91;5053440;28;20044;-76
2022/08/17 08:17:56;;;;;;;34.58;11.52;;;;;;;30.73;45.56;100042.53;5053269;28;20024;-75
2022/08/17 08:20:28;;;;;;;18.75;9.98;;;;;;;30.84;44.34;100047.00;5034666;28;20506;-76
2022/08/17 08:23:14;;;;;;;;;;;;;;;30.83;41.07;100050.88;5035415;28;20034;-77
2022/08/17 08:26:08;;;;;;;13.38;7.78;;;;;;;30.92;40.39;100043.69;5054231;28;20465;-76
2022/08/17 08:28:46;;;;;;;20.73;7.78;;;;;;;30.99;39.85;100044.31;5052712;28;20068;-77
2022/08/17 08:31:42;;;;;;;10.50;6.95;;;;;;;31.08;39.10;100047.38;5054069;28;20447;-77
2022/08/17 08:34:22;;;;;;;14.80;7.53;;;;;;;31.18;38.73;100037.16;5058124;28;20077;-77
2022/08/17 08:37:27;;;;;;;12.43;6.95;;;;;;;31.34;38.81;100039.97;5072928;28;20497;-77
2022/08/17 08:40:28;;;;;;;15.85;6.63;;;;;;;31.49;38.45;100038.06;5046897;28;20036;-77
2022/08/17 08:43:01;;;;;;;14.43;7.35;;;;;;;31.63;37.98;100046.69;5034757;28;20033;-79
2022/08/17 08:45:47;;;;;;;15.13;6.50;;;;;;;31.81;38.30;100043.34;5045442;28;20037;-79
2022/08/17 08:48:12;;;;;;;22.70;6.75;;;;;;;31.94;37.61;100045.59;5069591;28;20052;-78
2022/08/17 08:51:07;;;;;;;12.45;6.28;;;;;;;32.08;36.55;100035.56;5067657;28;20501;-80
2022/08/17 08:54:06;;;;;;;12.80;6.40;;;;;;;32.17;36.08;100033.09;5043742;28;20033;-77
2022/08/17 08:56:53;;;;;;;10.82;6.78;;;;;;;32.29;36.24;100037.22;5054519;28;20028;-78
2022/08/17 08:59:31;;;;;;;12.18;7.15;;;;;;;32.42;36.54;100032.16;5070303;28;20020;-74
2022/08/17 09:02:19;;;;;;;13.38;6.85;;;;;;;32.48;35.85;100033.81;5057126;28;20029;-76
2022/08/17 09:05:12;;;;;;;10.48;6.78;;;;;;;32.53;35.43;100037.44;5051868;28;20077;-79
2022/08/17 09:07:53;;;;;;;39.92;12.02;;;;;;;32.57;36.29;100024.63;5052827;28;20029;-75
2022/08/17 09:10:29;;;;;;;15.60;7.25;;;;;;;32.65;36.00;100028.78;5060069;28;20048;-76
2022/08/17 09:12:57;;;;;;;15.60;6.85;;;;;;;32.57;36.40;100034.97;5051669;28;20071;-75
2022/08/17 09:15:27;;;;;;;13.80;7.00;;;;;;;32.59;36.37;100030.78;5052567;28;20052;-77
2022/08/17 09:18:06;;;;;;;11.23;7.90;;;;;;;32.70;36.54;100035.19;5052653;28;20049;-77
2022/08/17 09:20:42;;;;;;;14.85;7.85;;;;;;;32.67;36.24;100020.97;5052071;28;20024;-77
2022/08/17 09:23:18;;;;;;;13.55;8.60;;;;;;;32.69;36.12;100029.91;5051548;28;20036;-77
2022/08/17 09:26:09;;;;;;;18.15;8.25;;;;;;;32.61;37.05;100038.81;5050322;28;20489;-77
2022/08/17 09:28:39;;;;;;;15.35;9.35;;;;;;;32.52;37.39;100040.50;5051188;28;20024;-77
2022/08/17 09:31:11;;;;;;;22.40;9.85;;;;;;;32.46;37.56;100041.63;5032852;28;20071;-76
2022/08/17 09:33:47;;;;;;;23.08;9.02;;;;;;;32.50;37.75;100035.22;5049181;28;20025;-77
2022/08/17 09:36:17;;;;;;;11.77;8.43;;;;;;;32.46;37.27;100039.69;5042175;28;20043;-77
2022/08/17 09:38:51;;;;;;;9.68;8.18;;;;;;;32.47;37.53;100034.97;5052223;28;20017;-78
2022/08/17 09:41:22;;;;;;;30.38;8.20;;;;;;;32.50;37.95;100031.59;5058966;28;20036;-76
2022/08/17 09:44:15;;;;;;;18.05;9.77;;;;;;;32.67;37.54;100030.19;5052571;28;20110;-77
2022/08/17 09:46:49;;;;;;;18.45;8.60;;;;;;;32.90;36.74;100031.47;5052553;28;20028;-77
2022/08/17 09:49:43;;;;;;;12.15;7.43;;;;;;;33.21;36.41;100026.63;5052780;28;20052;-77
2022/08/17 09:52:21;;;;;;;11.57;7.85;;;;;;;33.44;35.75;100036.19;5059543;28;20031;-78
2022/08/17 09:54:50;;;;;;;13.00;8.10;;;;;;;33.62;34.99;100021.59;5056393;28;20449;-76
2022/08/17 09:57:22;;;;;;;35.85;10.32;;;;;;;33.86;34.76;100019.72;5048202;28;20031;-76
2022/08/17 10:00:14;;;;;;;16.33;8.30;;;;;;;34.08;34.23;100019.22;5051789;28;20725;-77
2022/08/17 10:02:59;;;;;;;29.38;7.65;;;;;;;34.22;33.45;100014.66;5067370;28;20135;-77
2022/08/17 10:05:45;;;;;;;13.32;6.82;;;;;;;34.34;32.21;100018.69;5037944;28;20094;-77
2022/08/17 10:08:26;;;;;;;18.55;6.85;;;;;;;34.43;32.00;100019.69;5051969;28;20107;-77
2022/08/17 10:14:32;;;;;;;11.85;5.80;;;;;;;34.35;30.80;100020.38;5052370;28;20071;-78
2022/08/17 10:17:06;;;;;;;16.02;6.95;;;;;;;34.55;32.76;100012.88;5052502;28;20079;-76
2022/08/17 10:19:48;;;;;;;10.88;5.93;;;;;;;34.64;31.13;100016.72;5052384;28;20017;-77
2022/08/17 10:28:07;;;;;;;12.02;6.20;;;;;;;34.85;30.82;100009.75;5052301;28;20035;-77
2022/08/17 10:30:42;;;;;;;24.58;8.35;;;;;;;35.10;34.67;99998.25;5050705;28;20041;-77
2022/08/17 10:33:16;;;;;;;11.38;7.72;;;;;;;35.18;36.55;100005.09;5049803;28;20063;-77
2022/08/17 10:36:00;;;;;;;44.80;8.07;;;;;;;35.18;33.89;99996.72;5052324;28;20056;-76
2022/08/17 10:38:40;;;;;;;11.75;8.00;;;;;;;35.04;36.23;99991.03;5052718;28;20498;-77
2022/08/17 10:41:26;;;;;;;12.10;7.82;;;;;;;35.08;36.56;99994.88;5032103;28;20520;-77
2022/08/17 10:44:11;;;;;;;14.05;8.25;;;;;;;34.93;38.72;99992.28;5051370;28;20029;-77
2022/08/17 10:47:07;;;;;;;14.00;8.68;;;;;;;34.54;41.21;100000.03;5052523;28;20027;-77
2022/08/17 10:49:34;;;;;;;39.00;10.02;;;;;;;34.25;41.29;99981.38;5051436;28;20052;-77
2022/08/17 10:52:26;;;;;;;45.65;11.38;;;;;;;34.20;41.16;99995.41;5051939;28;20033;-77
2022/08/17 10:54:57;;;;;;;25.10;9.60;;;;;;;34.40;40.97;99986.78;5050358;28;20032;-78
2022/08/17 10:57:26;;;;;;;13.75;7.32;;;;;;;34.47;39.45;99978.88;5042251;28;20025;-76
2022/08/17 10:59:57;;;;;;;36.47;9.50;;;;;;;34.54;39.65;99972.13;5050404;28;20043;-76
2022/08/17 11:02:26;;;;;;;16.70;9.48;;;;;;;34.59;39.14;99970.09;5051713;28;20033;-76
2022/08/17 11:05:31;;;;;;;12.57;7.97;;;;;;;34.70;39.43;99971.66;5034275;28;20048;-76
2022/08/17 11:08:11;;;;;;;40.15;10.10;;;;;;;34.52;37.27;99966.00;5051707;28;20115;-76
2022/08/17 11:10:51;;;;;;;13.30;8.15;;;;;;;34.51;37.58;99969.91;5051615;28;20104;-76
2022/08/17 11:13:34;;;;;;;13.23;8.20;;;;;;;34.55;37.92;99962.59;5050719;28;20025;-78
2022/08/17 11:16:16;;;;;;;30.92;8.35;;;;;;;34.47;37.07;99972.47;5051184;28;20025;-76
2022/08/17 11:19:03;;;;;;;14.30;9.13;;;;;;;34.31;38.99;99974.59;5052250;28;20033;-79
2022/08/17 11:21:36;;;;;;;16.33;8.95;;;;;;;34.38;38.08;99965.88;5072649;28;20028;-80
2022/08/17 11:24:15;;;;;;;15.85;7.68;;;;;;;34.37;37.79;99979.00;5074352;28;20099;-79
2022/08/17 11:26:57;;;;;;;26.70;7.68;;;;;;;34.39;37.62;99971.19;5067542;28;20025;-80
2022/08/17 11:29:30;;;;;;;33.10;8.65;;;;;;;34.43;37.93;99983.41;5053730;28;20037;-81
2022/08/17 11:32:12;;;;;;;;;;;;;;;34.39;37.12;99987.94;5053691;28;20203;-82
2022/08/17 11:34:42;;;;;;;23.92;7.60;;;;;;;34.10;37.50;99989.91;5053019;28;19913;-82
2022/08/17 11:37:43;;;;;;;20.10;7.72;;;;;;;33.66;38.85;99994.78;5053301;28;20450;-82
2022/08/17 11:40:18;;;;;;;13.17;9.57;;;;;;;33.30;40.45;100008.97;5054410;28;20509;-82
2022/08/17 11:42:58;;;;;;;22.48;9.02;;;;;;;33.04;38.90;99999.06;5053804;28;20021;-82
2022/08/17 11:46:12;;;;;;;22.38;9.73;;;;;;;32.70;39.47;100004.53;5062289;28;20029;-82
2022/08/17 11:51:59;;;;;;;15.65;9.05;;;;;;;32.52;42.45;100018.22;5056307;28;20504;-79
2022/08/17 11:54:45;;;;;;;22.77;9.68;;;;;;;32.40;43.56;100023.28;5052768;28;20833;-77
2022/08/17 11:57:25;;;;;;;26.55;10.70;;;;;;;32.25;45.03;100022.22;5054952;28;20113;-75
2022/08/17 12:00:07;;;;;;;22.75;10.13;;;;;;;32.05;45.91;100030.56;5054717;28;20017;-78
2022/08/17 12:02:37;;;;;;;23.20;9.50;;;;;;;31.97;46.76;100028.34;5053393;28;20444;-78
2022/08/17 12:05:26;;;;;;;24.08;10.93;;;;;;;31.89;47.33;100026.13;5053530;28;20032;-77
2022/08/17 12:08:04;;;;;;;17.63;9.45;;;;;;;31.63;46.94;100022.50;5055895;28;20041;-76
2022/08/17 12:10:34;;;;;;;28.25;11.98;;;;;;;31.56;48.38;100026.69;5053116;28;20052;-77
2022/08/17 12:13:09;;;;;;;24.80;11.32;;;;;;;31.53;49.10;100055.03;5054567;28;20507;-75
2022/08/17 12:15:39;;;;;;;33.72;13.15;;;;;;;31.54;49.48;100073.38;5054198;28;20029;-75